sensor_id;sensor_type;location;lat;lon;timestamp;P1;durP1;ratioP1;P2;durP2;ratioP2
74849;SDS011;63397;47.480;19.238;2023-05-07T00:01:14;22.50;;;13.57;;
74849;SDS011;63397;47.480;19.238;2023-05-07T00:04:16;24.85;;;13.35;;
74849;SDS011;63397;47.480;19.238;2023-05-07T00:07:18;24.67;;;13.65;;
74849;SDS011;63397;47.480;19.238;2023-05-07T00:10:20;23.38;;;12.40;;
74849;SDS011;63397;47.480;19.238;2023-05-07T00:13:23;21.13;;;12.13;;
74849;SDS011;63397;47.480;19.238;2023-05-07T00:16:25;23.33;;;12.70;;
74849;SDS011;63397;47.480;19.238;2023-05-07T00:19:28;23.08;;;13.10;;
74849;SDS011;63397;47.480;19.238;2023-05-07T00:22:30;24.08;;;13.20;;
74849;SDS011;63397;47.480;19.238;2023-05-07T00:25:33;25.00;;;13.10;;
74849;SDS011;63397;47.480;19.238;2023-05-07T00:28:35;22.23;;;12.23;;
74849;SDS011;63397;47.480;19.238;2023-05-07T00:31:37;22.77;;;13.18;;
74849;SDS011;63397;47.480;19.238;2023-05-07T00:34:39;24.67;;;13.75;;
74849;SDS011;63397;47.480;19.238;2023-05-07T00:37:42;21.67;;;12.82;;
74849;SDS011;63397;47.480;19.238;2023-05-07T00:40:44;22.83;;;13.48;;
74849;SDS011;63397;47.480;19.238;2023-05-07T00:43:47;24.47;;;12.77;;
74849;SDS011;63397;47.480;19.238;2023-05-07T00:46:49;26.25;;;13.15;;
74849;SDS011;63397;47.480;19.238;2023-05-07T00:49:52;23.17;;;13.32;;
74849;SDS011;63397;47.480;19.238;2023-05-07T00:52:54;23.48;;;12.40;;
74849;SDS011;63397;47.480;19.238;2023-05-07T00:55:56;23.98;;;12.98;;
74849;SDS011;63397;47.480;19.238;2023-05-07T00:59:00;23.97;;;13.00;;
74849;SDS011;63397;47.480;19.238;2023-05-07T01:02:03;22.05;;;12.45;;
74849;SDS011;63397;47.480;19.238;2023-05-07T01:05:06;23.35;;;12.73;;
74849;SDS011;63397;47.480;19.238;2023-05-07T01:08:10;24.10;;;12.75;;
74849;SDS011;63397;47.480;19.238;2023-05-07T01:11:12;22.48;;;13.00;;
74849;SDS011;63397;47.480;19.238;2023-05-07T01:14:15;22.70;;;11.63;;
74849;SDS011;63397;47.480;19.238;2023-05-07T01:17:18;25.65;;;12.93;;
74849;SDS011;63397;47.480;19.238;2023-05-07T01:20:22;25.77;;;13.93;;
74849;SDS011;63397;47.480;19.238;2023-05-07T01:23:26;23.23;;;12.80;;
74849;SDS011;63397;47.480;19.238;2023-05-07T01:26:29;22.17;;;12.60;;
74849;SDS011;63397;47.480;19.238;2023-05-07T01:29:31;25.13;;;13.20;;
74849;SDS011;63397;47.480;19.238;2023-05-07T01:35:40;24.67;;;12.35;;
74849;SDS011;63397;47.480;19.238;2023-05-07T01:38:43;22.83;;;12.70;;
74849;SDS011;63397;47.480;19.238;2023-05-07T01:41:46;23.83;;;13.38;;
74849;SDS011;63397;47.480;19.238;2023-05-07T01:44:48;22.83;;;12.57;;
74849;SDS011;63397;47.480;19.238;2023-05-07T01:47:51;23.92;;;12.60;;
74849;SDS011;63397;47.480;19.238;2023-05-07T01:50:54;22.48;;;12.80;;
74849;SDS011;63397;47.480;19.238;2023-05-07T01:53:57;26.38;;;13.38;;
74849;SDS011;63397;47.480;19.238;2023-05-07T01:56:59;24.88;;;12.45;;
74849;SDS011;63397;47.480;19.238;2023-05-07T02:00:02;23.67;;;12.47;;
74849;SDS011;63397;47.480;19.238;2023-05-07T02:03:16;25.45;;;13.10;;
74849;SDS011;63397;47.480;19.238;2023-05-07T02:06:27;24.45;;;13.35;;
74849;SDS011;63397;47.480;19.238;2023-05-07T02:09:35;23.23;;;12.77;;
74849;SDS011;63397;47.480;19.238;2023-05-07T02:12:37;24.77;;;13.75;;
74849;SDS011;63397;47.480;19.238;2023-05-07T02:15:40;25.60;;;13.33;;
74849;SDS011;63397;47.480;19.238;2023-05-07T02:18:42;25.75;;;13.20;;
74849;SDS011;63397;47.480;19.238;2023-05-07T02:21:44;26.08;;;13.57;;
74849;SDS011;63397;47.480;19.238;2023-05-07T02:24:46;26.27;;;13.50;;
74849;SDS011;63397;47.480;19.238;2023-05-07T02:27:49;26.25;;;13.80;;
74849;SDS011;63397;47.480;19.238;2023-05-07T02:30:52;26.03;;;13.53;;
74849;SDS011;63397;47.480;19.238;2023-05-07T02:33:55;26.13;;;13.82;;
74849;SDS011;63397;47.480;19.238;2023-05-07T02:36:58;25.90;;;13.75;;
74849;SDS011;63397;47.480;19.238;2023-05-07T02:40:01;25.85;;;13.52;;
74849;SDS011;63397;47.480;19.238;2023-05-07T02:43:05;23.73;;;12.50;;
74849;SDS011;63397;47.480;19.238;2023-05-07T02:46:08;29.03;;;14.97;;
74849;SDS011;63397;47.480;19.238;2023-05-07T02:49:14;28.50;;;14.77;;
74849;SDS011;63397;47.480;19.238;2023-05-07T02:52:17;29.27;;;15.93;;
74849;SDS011;63397;47.480;19.238;2023-05-07T02:55:19;29.77;;;14.88;;
74849;SDS011;63397;47.480;19.238;2023-05-07T02:58:21;29.48;;;14.43;;
74849;SDS011;63397;47.480;19.238;2023-05-07T03:01:24;26.30;;;14.33;;
74849;SDS011;63397;47.480;19.238;2023-05-07T03:04:33;28.42;;;14.85;;
74849;SDS011;63397;47.480;19.238;2023-05-07T03:07:35;27.83;;;14.48;;
74849;SDS011;63397;47.480;19.238;2023-05-07T03:10:38;29.58;;;15.45;;
74849;SDS011;63397;47.480;19.238;2023-05-07T03:13:40;28.50;;;14.50;;
74849;SDS011;63397;47.480;19.238;2023-05-07T03:16:42;29.43;;;14.50;;
74849;SDS011;63397;47.480;19.238;2023-05-07T03:19:45;26.52;;;13.50;;
74849;SDS011;63397;47.480;19.238;2023-05-07T03:22:47;26.52;;;14.20;;
74849;SDS011;63397;47.480;19.238;2023-05-07T03:25:49;28.70;;;14.05;;
74849;SDS011;63397;47.480;19.238;2023-05-07T03:28:52;32.67;;;15.70;;
74849;SDS011;63397;47.480;19.238;2023-05-07T03:31:54;42.30;;;18.67;;
74849;SDS011;63397;47.480;19.238;2023-05-07T03:34:57;39.40;;;18.17;;
74849;SDS011;63397;47.480;19.238;2023-05-07T03:38:00;37.17;;;17.50;;
74849;SDS011;63397;47.480;19.238;2023-05-07T03:41:05;38.55;;;18.15;;
74849;SDS011;63397;47.480;19.238;2023-05-07T03:44:07;36.50;;;17.00;;
74849;SDS011;63397;47.480;19.238;2023-05-07T03:47:11;35.23;;;17.23;;
74849;SDS011;63397;47.480;19.238;2023-05-07T03:50:15;35.50;;;18.00;;
74849;SDS011;63397;47.480;19.238;2023-05-07T03:53:17;30.98;;;16.02;;
74849;SDS011;63397;47.480;19.238;2023-05-07T03:56:20;29.45;;;15.88;;
74849;SDS011;63397;47.480;19.238;2023-05-07T03:59:28;32.22;;;16.27;;
74849;SDS011;63397;47.480;19.238;2023-05-07T04:02:32;27.70;;;15.07;;
74849;SDS011;63397;47.480;19.238;2023-05-07T04:05:36;31.33;;;16.50;;
74849;SDS011;63397;47.480;19.238;2023-05-07T04:08:38;27.33;;;14.13;;
74849;SDS011;63397;47.480;19.238;2023-05-07T04:11:42;28.20;;;15.15;;
74849;SDS011;63397;47.480;19.238;2023-05-07T04:14:45;28.08;;;15.20;;
74849;SDS011;63397;47.480;19.238;2023-05-07T04:17:48;26.17;;;15.07;;
74849;SDS011;63397;47.480;19.238;2023-05-07T04:20:53;28.08;;;15.38;;
74849;SDS011;63397;47.480;19.238;2023-05-07T04:23:56;27.80;;;15.35;;
74849;SDS011;63397;47.480;19.238;2023-05-07T04:26:58;30.48;;;15.05;;
74849;SDS011;63397;47.480;19.238;2023-05-07T04:30:02;28.15;;;15.07;;
74849;SDS011;63397;47.480;19.238;2023-05-07T04:33:08;30.90;;;15.97;;
74849;SDS011;63397;47.480;19.238;2023-05-07T04:36:12;30.13;;;15.82;;
74849;SDS011;63397;47.480;19.238;2023-05-07T04:39:32;28.27;;;15.15;;
74849;SDS011;63397;47.480;19.238;2023-05-07T04:42:34;28.05;;;15.25;;
74849;SDS011;63397;47.480;19.238;2023-05-07T04:45:38;28.65;;;15.20;;
74849;SDS011;63397;47.480;19.238;2023-05-07T04:48:43;26.63;;;14.77;;
74849;SDS011;63397;47.480;19.238;2023-05-07T04:51:46;26.45;;;15.57;;
74849;SDS011;63397;47.480;19.238;2023-05-07T04:54:51;28.05;;;14.93;;
74849;SDS011;63397;47.480;19.238;2023-05-07T04:57:54;28.60;;;15.10;;
74849;SDS011;63397;47.480;19.238;2023-05-07T05:00:57;28.20;;;15.23;;
74849;SDS011;63397;47.480;19.238;2023-05-07T05:04:00;28.60;;;14.87;;
74849;SDS011;63397;47.480;19.238;2023-05-07T05:07:03;26.45;;;14.60;;
74849;SDS011;63397;47.480;19.238;2023-05-07T05:10:06;28.38;;;15.68;;
74849;SDS011;63397;47.480;19.238;2023-05-07T05:13:11;27.20;;;15.15;;
74849;SDS011;63397;47.480;19.238;2023-05-07T05:16:16;28.70;;;15.57;;
74849;SDS011;63397;47.480;19.238;2023-05-07T05:19:18;31.37;;;16.47;;
74849;SDS011;63397;47.480;19.238;2023-05-07T05:22:21;28.38;;;15.77;;
74849;SDS011;63397;47.480;19.238;2023-05-07T05:25:23;27.83;;;15.98;;
74849;SDS011;63397;47.480;19.238;2023-05-07T05:28:26;28.33;;;16.02;;
74849;SDS011;63397;47.480;19.238;2023-05-07T05:31:30;28.70;;;16.25;;
74849;SDS011;63397;47.480;19.238;2023-05-07T05:34:33;25.87;;;15.80;;
74849;SDS011;63397;47.480;19.238;2023-05-07T05:37:35;25.20;;;15.32;;
74849;SDS011;63397;47.480;19.238;2023-05-07T05:40:40;27.20;;;16.05;;
74849;SDS011;63397;47.480;19.238;2023-05-07T05:43:42;28.17;;;15.35;;
74849;SDS011;63397;47.480;19.238;2023-05-07T05:46:45;27.80;;;16.50;;
74849;SDS011;63397;47.480;19.238;2023-05-07T05:49:48;26.13;;;15.50;;
74849;SDS011;63397;47.480;19.238;2023-05-07T05:52:51;23.63;;;13.50;;
74849;SDS011;63397;47.480;19.238;2023-05-07T05:55:54;22.45;;;13.88;;
74849;SDS011;63397;47.480;19.238;2023-05-07T05:58:57;20.63;;;13.20;;
74849;SDS011;63397;47.480;19.238;2023-05-07T06:01:59;21.13;;;13.13;;
74849;SDS011;63397;47.480;19.238;2023-05-07T06:05:02;20.50;;;12.20;;
74849;SDS011;63397;47.480;19.238;2023-05-07T06:08:05;22.05;;;12.05;;
74849;SDS011;63397;47.480;19.238;2023-05-07T06:11:09;19.70;;;11.98;;
74849;SDS011;63397;47.480;19.238;2023-05-07T06:14:15;16.50;;;10.73;;
74849;SDS011;63397;47.480;19.238;2023-05-07T06:17:18;17.08;;;11.18;;
74849;SDS011;63397;47.480;19.238;2023-05-07T06:20:24;14.60;;;10.40;;
74849;SDS011;63397;47.480;19.238;2023-05-07T06:23:26;14.82;;;9.95;;
74849;SDS011;63397;47.480;19.238;2023-05-07T06:26:29;14.77;;;9.55;;
74849;SDS011;63397;47.480;19.238;2023-05-07T06:29:31;11.98;;;7.75;;
74849;SDS011;63397;47.480;19.238;2023-05-07T06:32:37;10.38;;;6.95;;
74849;SDS011;63397;47.480;19.238;2023-05-07T06:35:40;10.60;;;7.40;;
74849;SDS011;63397;47.480;19.238;2023-05-07T06:38:42;8.65;;;5.78;;
74849;SDS011;63397;47.480;19.238;2023-05-07T06:41:45;9.35;;;5.57;;
74849;SDS011;63397;47.480;19.238;2023-05-07T06:44:57;9.43;;;6.63;;
74849;SDS011;63397;47.480;19.238;2023-05-07T06:48:00;10.02;;;6.53;;
74849;SDS011;63397;47.480;19.238;2023-05-07T06:51:05;7.97;;;5.70;;
74849;SDS011;63397;47.480;19.238;2023-05-07T06:54:08;7.68;;;5.28;;
74849;SDS011;63397;47.480;19.238;2023-05-07T06:57:12;9.35;;;6.05;;
74849;SDS011;63397;47.480;19.238;2023-05-07T07:00:15;6.70;;;4.78;;
74849;SDS011;63397;47.480;19.238;2023-05-07T07:03:23;7.63;;;5.10;;
74849;SDS011;63397;47.480;19.238;2023-05-07T07:06:26;7.67;;;5.20;;
74849;SDS011;63397;47.480;19.238;2023-05-07T07:09:29;6.60;;;4.20;;
74849;SDS011;63397;47.480;19.238;2023-05-07T07:12:32;6.82;;;4.13;;
74849;SDS011;63397;47.480;19.238;2023-05-07T07:15:35;6.60;;;3.97;;
74849;SDS011;63397;47.480;19.238;2023-05-07T07:18:37;7.20;;;4.88;;
74849;SDS011;63397;47.480;19.238;2023-05-07T07:21:40;5.27;;;3.70;;
74849;SDS011;63397;47.480;19.238;2023-05-07T07:24:42;5.63;;;3.90;;
74849;SDS011;63397;47.480;19.238;2023-05-07T07:27:47;5.32;;;3.28;;
74849;SDS011;63397;47.480;19.238;2023-05-07T07:30:49;5.25;;;3.17;;
74849;SDS011;63397;47.480;19.238;2023-05-07T07:33:52;7.20;;;3.72;;
74849;SDS011;63397;47.480;19.238;2023-05-07T07:36:55;5.43;;;3.10;;
74849;SDS011;63397;47.480;19.238;2023-05-07T07:39:59;5.18;;;3.38;;
74849;SDS011;63397;47.480;19.238;2023-05-07T07:43:01;6.18;;;3.88;;
74849;SDS011;63397;47.480;19.238;2023-05-07T07:46:05;6.35;;;3.50;;
74849;SDS011;63397;47.480;19.238;2023-05-07T07:49:08;5.45;;;3.53;;
74849;SDS011;63397;47.480;19.238;2023-05-07T07:52:10;5.97;;;3.90;;
74849;SDS011;63397;47.480;19.238;2023-05-07T07:55:13;5.88;;;3.17;;
74849;SDS011;63397;47.480;19.238;2023-05-07T07:58:20;5.82;;;3.63;;
74849;SDS011;63397;47.480;19.238;2023-05-07T08:01:22;6.93;;;3.13;;
74849;SDS011;63397;47.480;19.238;2023-05-07T08:04:25;5.00;;;3.30;;
74849;SDS011;63397;47.480;19.238;2023-05-07T08:07:29;4.93;;;3.10;;
74849;SDS011;63397;47.480;19.238;2023-05-07T08:10:32;5.10;;;3.13;;
74849;SDS011;63397;47.480;19.238;2023-05-07T08:13:42;5.00;;;2.60;;
74849;SDS011;63397;47.480;19.238;2023-05-07T08:16:45;4.75;;;2.60;;
74849;SDS011;63397;47.480;19.238;2023-05-07T08:19:48;4.95;;;2.83;;
74849;SDS011;63397;47.480;19.238;2023-05-07T08:22:51;5.47;;;2.90;;
74849;SDS011;63397;47.480;19.238;2023-05-07T08:25:54;5.47;;;2.83;;
74849;SDS011;63397;47.480;19.238;2023-05-07T08:28:57;5.80;;;3.08;;
74849;SDS011;63397;47.480;19.238;2023-05-07T08:32:00;5.30;;;3.15;;
74849;SDS011;63397;47.480;19.238;2023-05-07T08:35:02;6.07;;;2.97;;
74849;SDS011;63397;47.480;19.238;2023-05-07T08:38:04;5.47;;;2.83;;
74849;SDS011;63397;47.480;19.238;2023-05-07T08:41:09;4.55;;;2.70;;
74849;SDS011;63397;47.480;19.238;2023-05-07T08:44:13;4.68;;;2.40;;
74849;SDS011;63397;47.480;19.238;2023-05-07T08:47:20;5.88;;;2.88;;
74849;SDS011;63397;47.480;19.238;2023-05-07T08:50:25;4.57;;;2.92;;
74849;SDS011;63397;47.480;19.238;2023-05-07T08:53:28;4.67;;;3.27;;
74849;SDS011;63397;47.480;19.238;2023-05-07T08:56:31;3.83;;;2.60;;
74849;SDS011;63397;47.480;19.238;2023-05-07T08:59:33;5.03;;;2.75;;
74849;SDS011;63397;47.480;19.238;2023-05-07T09:02:36;5.47;;;2.78;;
74849;SDS011;63397;47.480;19.238;2023-05-07T09:05:40;4.75;;;2.60;;
74849;SDS011;63397;47.480;19.238;2023-05-07T09:08:53;5.13;;;2.80;;
74849;SDS011;63397;47.480;19.238;2023-05-07T09:11:58;4.00;;;2.75;;
74849;SDS011;63397;47.480;19.238;2023-05-07T09:15:03;6.63;;;3.03;;
74849;SDS011;63397;47.480;19.238;2023-05-07T09:18:07;4.97;;;3.05;;
74849;SDS011;63397;47.480;19.238;2023-05-07T09:21:14;5.13;;;3.42;;
74849;SDS011;63397;47.480;19.238;2023-05-07T09:24:17;5.53;;;3.33;;
74849;SDS011;63397;47.480;19.238;2023-05-07T09:27:19;5.95;;;3.15;;
74849;SDS011;63397;47.480;19.238;2023-05-07T09:30:22;4.40;;;3.00;;
74849;SDS011;63397;47.480;19.238;2023-05-07T09:33:26;5.38;;;2.80;;
74849;SDS011;63397;47.480;19.238;2023-05-07T09:36:31;4.18;;;3.00;;
74849;SDS011;63397;47.480;19.238;2023-05-07T09:39:41;5.10;;;3.10;;
74849;SDS011;63397;47.480;19.238;2023-05-07T09:42:44;5.30;;;3.08;;
74849;SDS011;63397;47.480;19.238;2023-05-07T09:45:46;5.65;;;2.95;;
74849;SDS011;63397;47.480;19.238;2023-05-07T09:48:56;5.45;;;3.05;;
74849;SDS011;63397;47.480;19.238;2023-05-07T09:52:00;6.15;;;3.50;;
74849;SDS011;63397;47.480;19.238;2023-05-07T09:55:05;4.40;;;3.03;;
74849;SDS011;63397;47.480;19.238;2023-05-07T09:58:08;6.18;;;3.40;;
74849;SDS011;63397;47.480;19.238;2023-05-07T10:01:11;4.95;;;3.25;;
74849;SDS011;63397;47.480;19.238;2023-05-07T10:04:16;5.55;;;3.03;;
74849;SDS011;63397;47.480;19.238;2023-05-07T10:07:20;5.13;;;2.90;;
74849;SDS011;63397;47.480;19.238;2023-05-07T10:10:26;5.73;;;2.80;;
74849;SDS011;63397;47.480;19.238;2023-05-07T10:13:28;5.55;;;2.95;;
74849;SDS011;63397;47.480;19.238;2023-05-07T10:16:34;5.50;;;2.80;;
74849;SDS011;63397;47.480;19.238;2023-05-07T10:19:42;5.78;;;2.70;;
74849;SDS011;63397;47.480;19.238;2023-05-07T10:22:46;3.95;;;2.92;;
74849;SDS011;63397;47.480;19.238;2023-05-07T10:25:52;4.43;;;2.53;;
74849;SDS011;63397;47.480;19.238;2023-05-07T10:29:04;4.45;;;3.00;;
74849;SDS011;63397;47.480;19.238;2023-05-07T10:33:09;3.78;;;2.70;;
74849;SDS011;63397;47.480;19.238;2023-05-07T10:35:42;4.05;;;2.53;;
74849;SDS011;63397;47.480;19.238;2023-05-07T10:38:46;4.32;;;2.55;;
74849;SDS011;63397;47.480;19.238;2023-05-07T10:41:48;3.73;;;2.83;;
74849;SDS011;63397;47.480;19.238;2023-05-07T10:44:52;4.00;;;2.60;;
74849;SDS011;63397;47.480;19.238;2023-05-07T10:48:05;5.18;;;2.70;;
74849;SDS011;63397;47.480;19.238;2023-05-07T10:51:30;3.80;;;2.20;;
74849;SDS011;63397;47.480;19.238;2023-05-07T10:58:43;5.73;;;3.03;;
74849;SDS011;63397;47.480;19.238;2023-05-07T11:02:06;5.03;;;3.53;;
74849;SDS011;63397;47.480;19.238;2023-05-07T11:05:42;4.88;;;3.38;;
74849;SDS011;63397;47.480;19.238;2023-05-07T11:08:59;6.35;;;3.92;;
74849;SDS011;63397;47.480;19.238;2023-05-07T11:15:43;5.43;;;3.30;;
74849;SDS011;63397;47.480;19.238;2023-05-07T11:18:54;5.38;;;3.40;;
74849;SDS011;63397;47.480;19.238;2023-05-07T11:22:03;5.80;;;3.33;;
74849;SDS011;63397;47.480;19.238;2023-05-07T11:25:19;5.40;;;3.35;;
74849;SDS011;63397;47.480;19.238;2023-05-07T11:28:30;4.75;;;3.17;;
74849;SDS011;63397;47.480;19.238;2023-05-07T11:31:37;5.50;;;3.93;;
74849;SDS011;63397;47.480;19.238;2023-05-07T11:34:39;4.88;;;3.38;;
74849;SDS011;63397;47.480;19.238;2023-05-07T11:37:42;6.35;;;3.53;;
74849;SDS011;63397;47.480;19.238;2023-05-07T11:40:49;5.32;;;3.70;;
74849;SDS011;63397;47.480;19.238;2023-05-07T11:43:53;5.88;;;3.63;;
74849;SDS011;63397;47.480;19.238;2023-05-07T11:46:56;5.33;;;3.90;;
74849;SDS011;63397;47.480;19.238;2023-05-07T11:50:03;6.43;;;3.80;;
74849;SDS011;63397;47.480;19.238;2023-05-07T11:53:07;5.40;;;3.90;;
74849;SDS011;63397;47.480;19.238;2023-05-07T11:56:13;5.05;;;3.58;;
74849;SDS011;63397;47.480;19.238;2023-05-07T11:59:19;6.18;;;3.58;;
74849;SDS011;63397;47.480;19.238;2023-05-07T12:02:21;4.80;;;3.50;;
74849;SDS011;63397;47.480;19.238;2023-05-07T12:05:23;6.35;;;3.65;;
74849;SDS011;63397;47.480;19.238;2023-05-07T12:08:26;4.45;;;3.20;;
74849;SDS011;63397;47.480;19.238;2023-05-07T12:11:29;4.88;;;3.13;;
74849;SDS011;63397;47.480;19.238;2023-05-07T12:14:31;4.88;;;3.28;;
74849;SDS011;63397;47.480;19.238;2023-05-07T12:17:34;5.07;;;3.40;;
74849;SDS011;63397;47.480;19.238;2023-05-07T12:20:37;5.70;;;3.28;;
74849;SDS011;63397;47.480;19.238;2023-05-07T12:23:39;4.85;;;3.25;;
74849;SDS011;63397;47.480;19.238;2023-05-07T12:26:43;6.47;;;3.35;;
74849;SDS011;63397;47.480;19.238;2023-05-07T12:29:48;4.65;;;2.85;;
74849;SDS011;63397;47.480;19.238;2023-05-07T12:32:53;5.80;;;3.37;;
74849;SDS011;63397;47.480;19.238;2023-05-07T12:35:56;3.30;;;2.40;;
74849;SDS011;63397;47.480;19.238;2023-05-07T12:38:58;4.50;;;2.55;;
74849;SDS011;63397;47.480;19.238;2023-05-07T12:42:01;4.55;;;2.90;;
74849;SDS011;63397;47.480;19.238;2023-05-07T12:45:07;4.30;;;2.88;;
74849;SDS011;63397;47.480;19.238;2023-05-07T12:48:10;4.53;;;3.27;;
74849;SDS011;63397;47.480;19.238;2023-05-07T12:51:12;5.32;;;3.08;;
74849;SDS011;63397;47.480;19.238;2023-05-07T12:54:31;5.07;;;3.30;;
74849;SDS011;63397;47.480;19.238;2023-05-07T12:57:41;5.28;;;3.50;;
74849;SDS011;63397;47.480;19.238;2023-05-07T13:00:43;5.55;;;3.60;;
74849;SDS011;63397;47.480;19.238;2023-05-07T13:03:48;6.93;;;4.17;;
74849;SDS011;63397;47.480;19.238;2023-05-07T13:06:50;4.05;;;3.08;;
74849;SDS011;63397;47.480;19.238;2023-05-07T13:09:53;5.82;;;3.85;;
74849;SDS011;63397;47.480;19.238;2023-05-07T13:12:55;4.85;;;3.30;;
74849;SDS011;63397;47.480;19.238;2023-05-07T13:15:57;5.25;;;3.53;;
74849;SDS011;63397;47.480;19.238;2023-05-07T13:19:00;5.40;;;3.87;;
74849;SDS011;63397;47.480;19.238;2023-05-07T13:22:02;4.47;;;3.58;;
74849;SDS011;63397;47.480;19.238;2023-05-07T13:25:04;4.57;;;3.25;;
74849;SDS011;63397;47.480;19.238;2023-05-07T13:28:06;4.43;;;2.78;;
74849;SDS011;63397;47.480;19.238;2023-05-07T13:31:12;4.63;;;2.80;;
74849;SDS011;63397;47.480;19.238;2023-05-07T13:34:14;5.07;;;2.50;;
74849;SDS011;63397;47.480;19.238;2023-05-07T13:37:17;4.72;;;2.42;;
74849;SDS011;63397;47.480;19.238;2023-05-07T13:40:19;4.30;;;2.50;;
74849;SDS011;63397;47.480;19.238;2023-05-07T13:43:21;4.68;;;2.40;;
74849;SDS011;63397;47.480;19.238;2023-05-07T13:46:23;3.88;;;2.70;;
74849;SDS011;63397;47.480;19.238;2023-05-07T13:49:26;5.03;;;3.10;;
74849;SDS011;63397;47.480;19.238;2023-05-07T13:52:28;3.85;;;2.40;;
74849;SDS011;63397;47.480;19.238;2023-05-07T13:55:31;4.65;;;2.20;;
74849;SDS011;63397;47.480;19.238;2023-05-07T13:58:33;3.50;;;2.40;;
74849;SDS011;63397;47.480;19.238;2023-05-07T14:01:39;4.00;;;2.42;;
74849;SDS011;63397;47.480;19.238;2023-05-07T14:04:41;4.13;;;2.47;;
74849;SDS011;63397;47.480;19.238;2023-05-07T14:07:43;3.95;;;2.20;;
74849;SDS011;63397;47.480;19.238;2023-05-07T14:10:45;3.45;;;2.25;;
74849;SDS011;63397;47.480;19.238;2023-05-07T14:13:48;4.47;;;2.63;;
74849;SDS011;63397;47.480;19.238;2023-05-07T14:16:50;4.45;;;2.60;;
74849;SDS011;63397;47.480;19.238;2023-05-07T14:19:53;4.00;;;2.73;;
74849;SDS011;63397;47.480;19.238;2023-05-07T14:22:58;4.70;;;3.20;;
74849;SDS011;63397;47.480;19.238;2023-05-07T14:26:00;5.07;;;3.10;;
74849;SDS011;63397;47.480;19.238;2023-05-07T14:29:03;4.88;;;3.28;;
74849;SDS011;63397;47.480;19.238;2023-05-07T14:32:05;5.57;;;3.03;;
74849;SDS011;63397;47.480;19.238;2023-05-07T14:35:07;3.70;;;2.43;;
74849;SDS011;63397;47.480;19.238;2023-05-07T14:38:10;5.32;;;2.63;;
74849;SDS011;63397;47.480;19.238;2023-05-07T14:41:12;4.47;;;2.45;;
74849;SDS011;63397;47.480;19.238;2023-05-07T14:44:15;5.82;;;2.85;;
74849;SDS011;63397;47.480;19.238;2023-05-07T14:47:17;4.63;;;2.70;;
74849;SDS011;63397;47.480;19.238;2023-05-07T14:50:21;4.70;;;3.10;;
74849;SDS011;63397;47.480;19.238;2023-05-07T14:53:23;4.50;;;2.85;;
74849;SDS011;63397;47.480;19.238;2023-05-07T14:56:25;4.25;;;2.70;;
74849;SDS011;63397;47.480;19.238;2023-05-07T14:59:28;4.20;;;2.80;;
74849;SDS011;63397;47.480;19.238;2023-05-07T15:02:31;4.53;;;2.70;;
74849;SDS011;63397;47.480;19.238;2023-05-07T15:05:33;4.93;;;2.73;;
74849;SDS011;63397;47.480;19.238;2023-05-07T15:08:35;5.63;;;2.78;;
74849;SDS011;63397;47.480;19.238;2023-05-07T15:11:38;4.38;;;2.88;;
74849;SDS011;63397;47.480;19.238;2023-05-07T15:14:40;4.82;;;3.17;;
74849;SDS011;63397;47.480;19.238;2023-05-07T15:17:43;5.88;;;3.22;;
74849;SDS011;63397;47.480;19.238;2023-05-07T15:20:45;5.57;;;2.90;;
74849;SDS011;63397;47.480;19.238;2023-05-07T15:23:47;5.43;;;3.20;;
74849;SDS011;63397;47.480;19.238;2023-05-07T15:26:51;5.18;;;3.38;;
74849;SDS011;63397;47.480;19.238;2023-05-07T15:29:54;5.93;;;3.40;;
74849;SDS011;63397;47.480;19.238;2023-05-07T15:32:56;5.20;;;3.42;;
74849;SDS011;63397;47.480;19.238;2023-05-07T15:35:58;4.40;;;3.13;;
74849;SDS011;63397;47.480;19.238;2023-05-07T15:39:01;5.68;;;3.15;;
74849;SDS011;63397;47.480;19.238;2023-05-07T15:42:04;5.30;;;3.47;;
74849;SDS011;63397;47.480;19.238;2023-05-07T15:45:07;5.60;;;3.00;;
74849;SDS011;63397;47.480;19.238;2023-05-07T15:48:10;5.70;;;3.35;;
74849;SDS011;63397;47.480;19.238;2023-05-07T15:51:12;4.90;;;3.10;;
74849;SDS011;63397;47.480;19.238;2023-05-07T15:54:14;5.47;;;3.63;;
74849;SDS011;63397;47.480;19.238;2023-05-07T15:57:19;6.03;;;3.50;;
74849;SDS011;63397;47.480;19.238;2023-05-07T16:00:22;8.07;;;3.90;;
74849;SDS011;63397;47.480;19.238;2023-05-07T16:06:28;6.07;;;3.40;;
74849;SDS011;63397;47.480;19.238;2023-05-07T16:09:30;5.47;;;3.50;;
74849;SDS011;63397;47.480;19.238;2023-05-07T16:12:32;7.47;;;3.72;;
74849;SDS011;63397;47.480;19.238;2023-05-07T16:15:35;5.43;;;3.03;;
74849;SDS011;63397;47.480;19.238;2023-05-07T16:18:37;6.03;;;3.17;;
74849;SDS011;63397;47.480;19.238;2023-05-07T16:21:39;6.87;;;3.50;;
74849;SDS011;63397;47.480;19.238;2023-05-07T16:24:41;5.75;;;3.20;;
74849;SDS011;63397;47.480;19.238;2023-05-07T16:27:44;6.53;;;3.05;;
74849;SDS011;63397;47.480;19.238;2023-05-07T16:30:46;5.50;;;3.15;;
74849;SDS011;63397;47.480;19.238;2023-05-07T16:33:48;4.20;;;2.38;;
74849;SDS011;63397;47.480;19.238;2023-05-07T16:36:52;5.17;;;2.97;;
74849;SDS011;63397;47.480;19.238;2023-05-07T16:39:54;4.15;;;2.17;;
74849;SDS011;63397;47.480;19.238;2023-05-07T16:42:57;4.57;;;2.38;;
74849;SDS011;63397;47.480;19.238;2023-05-07T16:45:59;4.10;;;2.10;;
74849;SDS011;63397;47.480;19.238;2023-05-07T16:49:02;3.92;;;2.30;;
74849;SDS011;63397;47.480;19.238;2023-05-07T16:52:04;3.97;;;2.30;;
74849;SDS011;63397;47.480;19.238;2023-05-07T16:55:06;5.85;;;2.10;;
74849;SDS011;63397;47.480;19.238;2023-05-07T16:58:09;4.43;;;2.03;;
74849;SDS011;63397;47.480;19.238;2023-05-07T17:01:11;4.63;;;2.47;;
74849;SDS011;63397;47.480;19.238;2023-05-07T17:04:16;4.38;;;2.35;;
74849;SDS011;63397;47.480;19.238;2023-05-07T17:07:18;4.10;;;2.23;;
74849;SDS011;63397;47.480;19.238;2023-05-07T17:10:20;4.22;;;2.10;;
74849;SDS011;63397;47.480;19.238;2023-05-07T17:13:23;6.30;;;2.00;;
74849;SDS011;63397;47.480;19.238;2023-05-07T17:16:25;4.05;;;2.00;;
74849;SDS011;63397;47.480;19.238;2023-05-07T17:19:27;3.22;;;1.75;;
74849;SDS011;63397;47.480;19.238;2023-05-07T17:22:30;3.43;;;1.63;;
74849;SDS011;63397;47.480;19.238;2023-05-07T17:25:33;4.10;;;2.00;;
74849;SDS011;63397;47.480;19.238;2023-05-07T17:28:35;4.40;;;2.10;;
74849;SDS011;63397;47.480;19.238;2023-05-07T17:31:37;3.83;;;2.00;;
74849;SDS011;63397;47.480;19.238;2023-05-07T17:34:40;4.60;;;2.03;;
74849;SDS011;63397;47.480;19.238;2023-05-07T17:37:42;4.23;;;1.90;;
74849;SDS011;63397;47.480;19.238;2023-05-07T17:40:48;3.83;;;1.92;;
74849;SDS011;63397;47.480;19.238;2023-05-07T17:43:50;3.90;;;1.80;;
74849;SDS011;63397;47.480;19.238;2023-05-07T17:46:52;3.67;;;1.95;;
74849;SDS011;63397;47.480;19.238;2023-05-07T17:49:55;4.20;;;2.10;;
74849;SDS011;63397;47.480;19.238;2023-05-07T17:52:57;3.27;;;1.80;;
74849;SDS011;63397;47.480;19.238;2023-05-07T17:55:59;4.30;;;2.00;;
74849;SDS011;63397;47.480;19.238;2023-05-07T17:59:02;6.22;;;2.60;;
74849;SDS011;63397;47.480;19.238;2023-05-07T18:02:04;3.83;;;2.05;;
74849;SDS011;63397;47.480;19.238;2023-05-07T18:05:07;4.97;;;2.28;;
74849;SDS011;63397;47.480;19.238;2023-05-07T18:08:10;4.27;;;2.00;;
74849;SDS011;63397;47.480;19.238;2023-05-07T18:11:12;4.25;;;1.92;;
74849;SDS011;63397;47.480;19.238;2023-05-07T18:14:14;4.55;;;2.15;;